»·PEaware :: SWA3215 KSAN-KOAK

SWA3215 :: KSAN-KOAK

FLIGHT INFORMATION

Flight Status: Arrived
Operator:
Southwest Airlines
More flights by this operator :: More flights under this callsign
Pilot: Mike B. (19113)
Aircraft: BOEING 737-800
(B738)
More flights by this aircraft type
Origin: KSAN San Diego Intl-Lindbergh
United States
Destination: KOAK Metro Oakland Intl
United States
More flights between these airports :: More routes between these airports
Route: PADRZ2 OROSZ COREZ RGOOD EMZOH3
File this flight plan on PilotEdge
Remarks: PBN / A1B1C1D1S1S2 DOF / 180513 REG / N806SB EET / KZOA0035 OPR / SWA PER / C RMK / TCAS SIMBRIEF
Altitude:
(Current/Filed)
38,000ft
Speed:
(Current/Filed)
454kts
Departed: 13-May-18 03:49 PM
Arrived: 13-May-18 05:01 PM
Distance/Time
Traveled:
387nm/1:11
Distance/Time
To Go:
Arrived

Flight Plot

Page will automatically refresh every two minutes.

Flight plan parsing failed; only flown route is shown


Map Options




Map Legend


Flown Route
Filed Route
Departure Airport
Arrival Airport
Navaid (VOR, NDB)
Fix

Horizontal Profiles

Position Reports

Time Latitude Longitude Heading Altitude Ground
Speed
13-May-18 15:16 32.733160 -117.195641 227 25ft 0kts
13-May-18 15:17 32.733160 -117.195641 227 25ft 0kts
13-May-18 15:18 32.733160 -117.195641 227 25ft 0kts
13-May-18 15:19 32.733160 -117.195641 227 25ft 0kts
13-May-18 15:20 32.733160 -117.195641 227 25ft 0kts
13-May-18 15:21 32.733160 -117.195641 227 25ft 0kts
13-May-18 15:22 32.733160 -117.195641 227 25ft 0kts
13-May-18 15:23 32.733160 -117.195641 227 25ft 0kts
13-May-18 15:24 32.733160 -117.195641 227 25ft 0kts
13-May-18 15:25 32.733160 -117.195641 227 25ft 0kts
13-May-18 15:26 32.733160 -117.195641 227 25ft 0kts
13-May-18 15:27 32.733160 -117.195641 227 25ft 0kts
13-May-18 15:28 32.733160 -117.195641 227 25ft 0kts
13-May-18 15:29 32.733160 -117.195641 227 25ft 0kts
13-May-18 15:30 32.733160 -117.195641 227 25ft 0kts
13-May-18 15:31 32.733160 -117.195641 227 25ft 0kts
13-May-18 15:32 32.733160 -117.195641 227 25ft 0kts
13-May-18 15:33 32.733160 -117.195641 227 25ft 0kts
13-May-18 15:34 32.733160 -117.195641 227 25ft 0kts
13-May-18 15:35 32.733160 -117.195641 227 25ft 0kts
13-May-18 15:36 32.733160 -117.195641 227 25ft 0kts
13-May-18 15:37 32.733160 -117.195641 227 25ft 0kts
13-May-18 15:38 32.733160 -117.195641 227 25ft 0kts
13-May-18 15:39 32.733160 -117.195641 227 25ft 0kts
13-May-18 15:40 32.733272 -117.195497 226 25ft 2kts
13-May-18 15:41 32.733734 -117.195257 159 25ft 2kts
13-May-18 15:42 32.733968 -117.195586 105 25ft 0kts
13-May-18 15:43 32.733968 -117.195586 105 25ft 0kts
13-May-18 15:44 32.733965 -117.195571 105 25ft 2kts
13-May-18 15:45 32.732647 -117.190092 107 25ft 23kts
13-May-18 15:46 32.730593 -117.181933 103 25ft 28kts
13-May-18 15:47 32.729520 -117.176746 74 25ft 0kts
13-May-18 15:48 32.729716 -117.176008 66 25ft 11kts
13-May-18 15:49 32.731504 -117.181135 286 25ft 114kts
13-May-18 15:50 32.746491 -117.237148 301 2710ft 205kts
13-May-18 15:51 32.786442 -117.298734 307 5202ft 260kts
13-May-18 15:52 32.831739 -117.367832 306 9458ft 276kts
13-May-18 15:53 32.881540 -117.445175 306 12590ft 316kts
13-May-18 15:54 32.935947 -117.529719 305 16437ft 331kts
13-May-18 15:55 32.992435 -117.617838 305 19951ft 342kts
13-May-18 15:56 33.050222 -117.708251 305 23120ft 349kts
13-May-18 15:57 33.119449 -117.788359 317 26001ft 354kts
13-May-18 15:58 33.194466 -117.864216 317 28298ft 364kts
13-May-18 15:59 33.273258 -117.940840 318 30658ft 366kts
13-May-18 16:00 33.350792 -118.016290 317 33103ft 356kts
13-May-18 16:01 33.426511 -118.090259 317 35112ft 350kts
13-May-18 16:02 33.501211 -118.163481 317 36750ft 347kts
13-May-18 16:03 33.568085 -118.229181 317 37961ft 347kts
13-May-18 16:04 33.641042 -118.275087 330 38106ft 379kts
13-May-18 16:05 33.739487 -118.328190 330 38093ft 395kts
13-May-18 16:06 33.839258 -118.379076 332 38094ft 397kts
13-May-18 16:07 33.939844 -118.429450 332 38091ft 396kts
13-May-18 16:08 34.040238 -118.480035 332 38088ft 397kts
13-May-18 16:09 34.122697 -118.521770 332 38092ft 396kts
13-May-18 16:10 34.221370 -118.571890 332 38090ft 397kts
13-May-18 16:11 34.322243 -118.623168 332 38089ft 397kts
13-May-18 16:12 34.419872 -118.671236 332 38104ft 398kts
13-May-18 16:13 34.514492 -118.735300 325 38110ft 392kts
13-May-18 16:14 34.607973 -118.802089 324 38060ft 392kts
13-May-18 16:15 34.700768 -118.868628 325 38058ft 393kts
13-May-18 16:16 34.794381 -118.935824 326 38042ft 395kts
13-May-18 16:17 34.888916 -119.003692 327 38002ft 398kts
13-May-18 16:18 34.983130 -119.071359 328 37984ft 390kts
13-May-18 16:19 35.075213 -119.137460 330 37981ft 386kts
13-May-18 16:20 35.161451 -119.199304 330 37994ft 386kts
13-May-18 16:21 35.253372 -119.265222 330 37993ft 386kts
13-May-18 16:22 35.345825 -119.331518 330 37990ft 386kts
13-May-18 16:23 35.438071 -119.397654 330 37981ft 386kts
13-May-18 16:24 35.530653 -119.464019 330 37970ft 386kts
13-May-18 16:25 35.616715 -119.541291 321 37966ft 387kts
13-May-18 16:26 35.698562 -119.626542 322 37966ft 387kts
13-May-18 16:27 35.775822 -119.706343 321 37977ft 387kts
13-May-18 16:28 35.858295 -119.791269 321 37987ft 387kts
13-May-18 16:29 35.938426 -119.876972 318 37986ft 388kts
13-May-18 16:30 36.015765 -119.969297 318 37983ft 388kts
13-May-18 16:31 36.093008 -120.061487 318 37982ft 388kts
13-May-18 16:32 36.165288 -120.147816 318 37995ft 389kts
13-May-18 16:33 36.242553 -120.240261 318 37993ft 389kts
13-May-18 16:34 36.319418 -120.332432 318 37992ft 388kts
13-May-18 16:35 36.398095 -120.426982 318 37261ft 396kts
13-May-18 16:36 36.474691 -120.519333 318 36371ft 385kts
13-May-18 16:37 36.552971 -120.612782 320 35040ft 419kts
13-May-18 16:38 36.632259 -120.700678 320 32444ft 386kts
13-May-18 16:39 36.713457 -120.790904 320 29751ft 387kts
13-May-18 16:40 36.792204 -120.878599 320 27030ft 375kts
13-May-18 16:41 36.868654 -120.963416 320 24308ft 364kts
13-May-18 16:42 36.943354 -121.046529 320 21591ft 359kts
13-May-18 16:43 37.016759 -121.128401 320 18878ft 353kts
13-May-18 16:44 37.089423 -121.209643 319 16168ft 350kts
13-May-18 16:45 37.158296 -121.287570 318 13836ft 341kts
13-May-18 16:46 37.226132 -121.366380 318 11914ft 331kts
13-May-18 16:47 37.291869 -121.442990 318 10613ft 325kts
13-May-18 16:48 37.353852 -121.515427 318 9885ft 284kts
13-May-18 16:49 37.410526 -121.580997 319 8647ft 273kts
13-May-18 16:50 37.461243 -121.649034 307 7497ft 264kts
13-May-18 16:51 37.502161 -121.721206 306 6963ft 259kts
13-May-18 16:52 37.537853 -121.799041 280 6974ft 260kts
13-May-18 16:53 37.547137 -121.892494 278 5661ft 288kts
13-May-18 16:54 37.555787 -121.981387 277 4207ft 225kts
13-May-18 16:55 37.586929 -122.042485 310 3512ft 209kts
13-May-18 16:56 37.620075 -122.092393 309 2484ft 160kts
13-May-18 16:57 37.640060 -122.122253 308 1879ft 134kts
13-May-18 16:58 37.659136 -122.150935 307 1247ft 127kts
13-May-18 16:59 37.682363 -122.184363 306 671ft 130kts
13-May-18 17:00 37.705487 -122.220135 306 16ft 120kts
13-May-18 17:01 37.716921 -122.237091 316 15ft 0kts
13-May-18 17:02 37.719535 -122.239800 28 15ft 0kts
13-May-18 17:03 37.719753 -122.239572 58 15ft 6kts
13-May-18 17:04 37.717886 -122.235538 120 15ft 18kts
13-May-18 17:05 37.713999 -122.229281 130 15ft 21kts
13-May-18 17:06 37.711736 -122.223623 40 15ft 17kts
13-May-18 17:07 37.710913 -122.218901 129 15ft 17kts
13-May-18 17:08 37.710188 -122.214260 71 15ft 12kts
13-May-18 17:09 37.710689 -122.212339 68 15ft 0kts
13-May-18 17:10 37.710689 -122.212339 68 15ft 0kts

Navigation Log

Ident Type
Flight plan parsing failed, navigation log unavailable